createdAt,value
2018-09-11T00:00:15.686Z,100077.00
2018-09-11T00:02:20.230Z,100077.00
2018-09-11T00:04:24.906Z,100076.00
2018-09-11T00:06:30.305Z,100080.00
2018-09-11T00:08:34.822Z,100077.00
2018-09-11T00:10:39.335Z,100086.00
2018-09-11T00:12:43.815Z,100082.00
2018-09-11T00:14:48.646Z,100086.00
2018-09-11T00:16:53.171Z,100073.00
2018-09-11T00:18:57.602Z,100081.00
2018-09-11T00:21:02.173Z,100068.00
2018-09-11T00:23:07.314Z,100059.00
2018-09-11T00:25:11.778Z,100062.00
2018-09-11T00:27:16.258Z,100083.00
2018-09-11T00:29:20.715Z,100084.00
2018-09-11T00:31:25.154Z,100082.00
2018-09-11T00:33:29.646Z,100086.00
2018-09-11T00:35:34.290Z,100080.00
2018-09-11T00:37:38.758Z,100074.00
2018-09-11T00:39:43.221Z,100077.00
2018-09-11T00:41:47.764Z,100081.00
2018-09-11T00:43:52.286Z,100082.00
2018-09-11T00:45:56.752Z,100073.00
2018-09-11T00:48:01.247Z,100075.00
2018-09-11T00:50:06.111Z,100063.00
2018-09-11T00:52:11.158Z,100068.00
2018-09-11T00:54:15.637Z,100066.00
2018-09-11T00:56:20.154Z,100061.00
2018-09-11T00:58:25.027Z,100053.00
2018-09-11T01:00:29.479Z,100053.00
2018-09-11T01:02:33.984Z,100060.00
2018-09-11T01:04:38.590Z,100068.00
2018-09-11T01:06:43.158Z,100060.00
2018-09-11T01:08:47.627Z,100059.00
2018-09-11T01:10:52.091Z,100056.00
2018-09-11T01:12:56.656Z,100062.00
2018-09-11T01:15:01.174Z,100073.00
2018-09-11T01:17:06.396Z,100065.00
2018-09-11T01:19:11.462Z,100061.00
2018-09-11T01:21:16.065Z,100057.00
2018-09-11T01:23:20.514Z,100053.00
2018-09-11T01:25:25.022Z,100048.00
2018-09-11T01:27:29.519Z,100052.00
2018-09-11T01:29:33.981Z,100047.00
2018-09-11T01:31:38.528Z,100044.00
2018-09-11T01:33:43.038Z,100044.00
2018-09-11T01:35:47.662Z,100044.00
2018-09-11T01:37:52.851Z,100033.00
2018-09-11T01:39:57.345Z,100027.00
2018-09-11T01:42:02.176Z,100036.00
2018-09-11T01:44:06.817Z,100031.00
2018-09-11T01:46:11.682Z,100031.00
2018-09-11T01:48:16.399Z,100035.00
2018-09-11T01:50:20.819Z,100032.00
2018-09-11T01:52:25.279Z,100018.00
2018-09-11T01:54:29.778Z,100014.00
2018-09-11T01:56:34.238Z,100008.00
2018-09-11T01:58:38.737Z,100021.00
2018-09-11T02:00:43.386Z,100017.00
2018-09-11T02:02:48.042Z,100013.00
2018-09-11T02:04:52.800Z,100015.00
2018-09-11T02:06:57.318Z,100010.00
2018-09-11T02:09:01.767Z,100005.00
2018-09-11T02:11:06.285Z,100009.00
2018-09-11T02:13:10.851Z,100010.00
2018-09-11T02:15:15.382Z,100006.00
2018-09-11T02:17:19.819Z,99999.00
2018-09-11T02:19:24.246Z,99996.00
2018-09-11T02:21:29.134Z,100009.00
2018-09-11T02:23:33.570Z,100005.00
2018-09-11T02:25:38.064Z,100001.00
2018-09-11T02:27:42.750Z,100009.00
2018-09-11T02:29:47.167Z,99999.00
2018-09-11T02:31:51.592Z,99992.00
2018-09-11T02:33:56.370Z,100009.00
2018-09-11T02:36:01.059Z,100009.00
2018-09-11T02:38:06.335Z,100002.00
2018-09-11T02:40:10.807Z,100002.00
2018-09-11T02:42:15.282Z,100010.00
2018-09-11T02:44:19.732Z,99998.00
2018-09-11T02:46:24.214Z,99999.00
2018-09-11T02:48:28.661Z,100007.00
2018-09-11T02:50:33.116Z,100011.00
2018-09-11T02:52:37.832Z,100010.00
2018-09-11T02:54:42.731Z,100019.00
2018-09-11T02:56:47.178Z,100010.00
2018-09-11T02:58:51.749Z,100023.00
2018-09-11T03:00:56.203Z,100014.00
2018-09-11T03:03:00.755Z,100023.00
2018-09-11T03:05:05.307Z,100026.00
2018-09-11T03:07:09.787Z,100024.00
2018-09-11T03:09:15.357Z,100030.00
2018-09-11T03:11:19.831Z,100020.00
2018-09-11T03:13:24.323Z,100025.00
2018-09-11T03:15:28.728Z,100013.00
2018-09-11T03:17:33.182Z,100023.00
2018-09-11T03:19:37.880Z,100025.00
2018-09-11T03:21:42.988Z,100025.00
2018-09-11T03:23:47.672Z,100020.00
2018-09-11T03:25:52.160Z,100021.00
2018-09-11T03:27:56.611Z,100022.00
2018-09-11T03:30:01.089Z,100017.00
2018-09-11T03:32:05.551Z,100028.00
2018-09-11T03:34:10.045Z,100031.00
2018-09-11T03:36:15.621Z,100022.00
2018-09-11T03:38:20.103Z,100031.00
2018-09-11T03:40:24.619Z,100038.00
2018-09-11T03:42:29.074Z,100040.00
2018-09-11T03:44:34.295Z,100038.00
2018-09-11T03:46:38.727Z,100040.00
2018-09-11T03:48:43.191Z,100036.00
2018-09-11T03:50:48.831Z,100019.00
2018-09-11T03:52:53.258Z,100026.00
2018-09-11T03:54:57.682Z,100029.00
2018-09-11T03:57:02.142Z,100026.00
2018-09-11T03:59:06.875Z,100028.00
2018-09-11T04:01:11.419Z,100029.00
2018-09-11T04:03:16.277Z,100035.00
2018-09-11T04:05:20.860Z,100037.00
2018-09-11T04:07:25.275Z,100043.00
2018-09-11T04:09:29.720Z,100039.00
2018-09-11T04:11:34.187Z,100037.00
2018-09-11T04:13:38.646Z,100035.00
2018-09-11T04:15:43.084Z,100025.00
2018-09-11T04:17:47.607Z,100029.00
2018-09-11T04:19:52.070Z,100023.00
2018-09-11T04:21:56.566Z,100029.00
2018-09-11T04:24:01.058Z,100029.00
2018-09-11T04:26:05.863Z,100039.00
2018-09-11T04:28:10.377Z,100026.00
2018-09-11T04:30:14.854Z,100033.00
2018-09-11T04:32:19.267Z,100035.00
2018-09-11T04:34:23.755Z,100038.00
2018-09-11T04:36:28.262Z,100032.00
2018-09-11T04:38:32.695Z,100038.00
2018-09-11T04:40:37.180Z,100032.00
2018-09-11T04:42:41.667Z,100034.00
2018-09-11T04:44:46.159Z,100031.00
2018-09-11T04:46:50.607Z,100036.00
2018-09-11T04:48:55.080Z,100036.00
2018-09-11T04:50:59.610Z,100034.00
2018-09-11T04:53:04.042Z,100033.00
2018-09-11T04:55:08.603Z,100025.00
2018-09-11T04:57:13.068Z,100033.00
2018-09-11T04:59:17.594Z,100027.00
2018-09-11T05:01:23.016Z,100018.00
2018-09-11T05:03:27.577Z,100019.00
2018-09-11T05:05:31.999Z,100029.00
2018-09-11T05:07:37.011Z,100028.00
2018-09-11T05:09:41.460Z,100028.00
2018-09-11T05:11:45.910Z,100022.00
2018-09-11T05:13:51.242Z,100017.00
2018-09-11T05:15:56.970Z,100017.00
2018-09-11T05:18:01.521Z,100009.00
2018-09-11T05:20:06.053Z,100022.00
2018-09-11T05:22:10.602Z,100016.00
2018-09-11T05:24:18.274Z,100010.00
2018-09-11T05:26:27.243Z,100013.00
2018-09-11T05:28:35.422Z,100018.00
2018-09-11T05:30:40.246Z,100013.00
2018-09-11T05:32:44.723Z,100009.00
2018-09-11T05:34:49.828Z,100014.00
2018-09-11T05:36:54.386Z,100007.00
2018-09-11T05:38:58.842Z,100011.00
2018-09-11T05:41:03.344Z,100018.00
2018-09-11T05:43:07.785Z,100021.00
2018-09-11T05:45:12.474Z,100012.00
2018-09-11T05:47:17.553Z,100008.00
2018-09-11T05:49:21.992Z,100018.00
2018-09-11T05:51:26.534Z,100010.00
2018-09-11T05:53:31.071Z,100017.00
2018-09-11T05:55:35.559Z,100023.00
2018-09-11T05:57:40.016Z,100024.00
2018-09-11T05:59:44.491Z,100022.00
2018-09-11T06:01:48.991Z,100022.00
2018-09-11T06:03:53.423Z,100019.00
2018-09-11T06:05:57.945Z,100021.00
2018-09-11T06:08:02.368Z,100020.00
2018-09-11T06:10:07.006Z,100017.00
2018-09-11T06:12:11.617Z,100016.00
2018-09-11T06:14:16.090Z,100014.00
2018-09-11T06:16:20.653Z,100015.00
2018-09-11T06:18:25.139Z,100016.00
2018-09-11T06:20:29.683Z,100015.00
2018-09-11T06:22:34.191Z,100016.00
2018-09-11T06:24:38.619Z,100024.00
2018-09-11T06:26:43.125Z,100022.00
2018-09-11T06:28:48.287Z,100017.00
2018-09-11T06:30:52.750Z,100027.00
2018-09-11T06:32:57.278Z,100025.00
2018-09-11T06:35:01.792Z,100025.00
2018-09-11T06:37:06.521Z,100028.00
2018-09-11T06:39:11.904Z,100024.00
2018-09-11T06:41:16.579Z,100019.00
2018-09-11T06:43:21.097Z,100015.00
2018-09-11T06:45:25.498Z,100025.00
2018-09-11T06:47:30.016Z,100029.00
2018-09-11T06:49:34.469Z,100022.00
2018-09-11T06:51:38.998Z,100031.00
2018-09-11T06:53:44.527Z,100026.00
2018-09-11T06:55:49.017Z,100034.00
2018-09-11T06:57:53.462Z,100028.00
2018-09-11T06:59:57.943Z,100029.00
2018-09-11T07:02:02.494Z,100032.00
2018-09-11T07:04:07.583Z,100032.00
2018-09-11T07:06:12.031Z,100048.00
2018-09-11T07:08:22.740Z,100038.00
2018-09-11T07:10:29.151Z,100045.00
2018-09-11T07:12:36.688Z,100044.00
2018-09-11T07:14:41.235Z,100042.00
2018-09-11T07:16:45.753Z,100047.00
2018-09-11T07:18:50.190Z,100051.00
2018-09-11T07:20:54.945Z,100064.00
2018-09-11T07:22:59.405Z,100064.00
2018-09-11T07:25:04.915Z,100057.00
2018-09-11T07:27:09.471Z,100048.00
2018-09-11T07:29:14.022Z,100045.00
2018-09-11T07:31:18.659Z,100038.00
2018-09-11T07:33:23.273Z,100044.00
2018-09-11T07:35:27.721Z,100054.00
2018-09-11T07:37:32.212Z,100051.00
2018-09-11T07:39:36.710Z,100050.00
2018-09-11T07:41:41.253Z,100059.00
2018-09-11T07:43:45.778Z,100053.00
2018-09-11T07:45:50.315Z,100052.00
2018-09-11T07:47:56.755Z,100063.00
2018-09-11T07:50:04.010Z,100062.00
2018-09-11T07:52:10.643Z,100077.00
2018-09-11T07:54:18.743Z,100067.00
2018-09-11T07:56:27.496Z,100076.00
2018-09-11T07:58:35.133Z,100067.00
2018-09-11T08:00:41.793Z,100065.00
2018-09-11T08:02:51.685Z,100073.00
2018-09-11T08:04:58.305Z,100067.00
2018-09-11T08:07:08.106Z,100075.00
2018-09-11T08:09:17.062Z,100066.00
2018-09-11T08:11:23.880Z,100082.00
2018-09-11T08:13:33.352Z,100087.00
2018-09-11T08:15:40.283Z,100075.00
2018-09-11T08:17:48.847Z,100079.00
2018-09-11T08:19:57.091Z,100082.00
2018-09-11T08:22:05.226Z,100083.00
2018-09-11T08:24:13.571Z,100084.00
2018-09-11T08:26:21.515Z,100077.00
2018-09-11T08:28:28.036Z,100076.00
2018-09-11T08:30:35.323Z,100080.00
2018-09-11T08:32:45.028Z,100078.00
2018-09-11T08:34:51.683Z,100078.00
2018-09-11T08:36:59.631Z,100068.00
2018-09-11T08:39:12.927Z,100067.00
2018-09-11T08:41:18.796Z,100075.00
2018-09-11T08:43:23.338Z,100075.00
2018-09-11T08:45:33.038Z,100064.00
2018-09-11T08:47:40.982Z,100067.00
2018-09-11T08:49:48.137Z,100066.00
2018-09-11T08:51:58.280Z,100066.00
2018-09-11T08:54:03.987Z,100061.00
2018-09-11T08:56:11.105Z,100057.00
2018-09-11T08:58:18.843Z,100048.00
2018-09-11T09:00:24.627Z,100055.00
2018-09-11T09:02:32.234Z,100055.00
2018-09-11T09:04:39.759Z,100052.00
2018-09-11T09:06:49.121Z,100055.00
2018-09-11T09:08:55.946Z,100052.00
2018-09-11T09:11:02.780Z,100056.00
2018-09-11T09:13:09.327Z,100065.00
2018-09-11T09:15:15.118Z,100058.00
2018-09-11T09:17:22.658Z,100054.00
2018-09-11T09:19:31.022Z,100054.00
2018-09-11T09:21:38.295Z,100066.00
2018-09-11T09:23:44.718Z,100049.00
2018-09-11T09:25:51.628Z,100052.00
2018-09-11T09:27:58.913Z,100051.00
2018-09-11T09:30:07.244Z,100052.00
2018-09-11T09:32:14.095Z,100043.00
2018-09-11T09:34:22.033Z,100046.00
2018-09-11T09:36:28.991Z,100053.00
2018-09-11T09:38:35.710Z,100052.00
2018-09-11T09:40:41.511Z,100040.00
2018-09-11T09:42:47.760Z,100048.00
2018-09-11T09:44:54.503Z,100035.00
2018-09-11T09:47:01.899Z,100040.00
2018-09-11T09:49:10.271Z,100038.00
2018-09-11T09:51:19.004Z,100037.00
2018-09-11T09:53:27.429Z,100038.00
2018-09-11T09:55:35.417Z,100034.00
2018-09-11T09:57:43.398Z,100041.00
2018-09-11T09:59:51.771Z,100034.00
2018-09-11T10:02:04.662Z,100061.00
2018-09-11T10:04:12.409Z,100054.00
2018-09-11T10:06:18.930Z,100061.00
2018-09-11T10:08:25.703Z,100057.00
2018-09-11T10:10:33.754Z,100054.00
2018-09-11T10:12:42.356Z,100063.00
2018-09-11T10:14:49.926Z,100057.00
2018-09-11T10:16:58.929Z,100056.00
2018-09-11T10:19:07.447Z,100066.00
2018-09-11T10:21:14.676Z,100065.00
2018-09-11T10:23:19.417Z,100068.00
2018-09-11T10:25:24.486Z,100069.00
2018-09-11T10:27:29.581Z,100069.00
2018-09-11T10:29:34.633Z,100064.00
2018-09-11T10:31:40.146Z,100063.00
2018-09-11T10:33:45.296Z,100046.00
2018-09-11T10:35:49.718Z,100048.00
2018-09-11T10:37:54.617Z,100048.00
2018-09-11T10:39:59.574Z,100050.00
2018-09-11T10:42:04.299Z,100034.00
2018-09-11T10:44:08.884Z,100033.00
2018-09-11T10:46:14.350Z,100034.00
2018-09-11T10:48:23.110Z,100038.00
2018-09-11T10:50:31.607Z,100034.00
2018-09-11T10:52:38.155Z,100041.00
2018-09-11T10:54:51.683Z,100044.00
2018-09-11T10:57:01.967Z,100015.00
2018-09-11T10:59:11.163Z,100029.00
2018-09-11T11:01:22.107Z,100018.00
2018-09-11T11:03:32.517Z,100016.00
2018-09-11T11:05:42.852Z,100031.00
2018-09-11T11:07:52.725Z,100026.00
2018-09-11T11:10:04.918Z,100035.00
2018-09-11T11:12:15.289Z,100025.00
2018-09-11T11:14:23.961Z,100022.00
2018-09-11T11:16:33.368Z,100026.00
2018-09-11T11:18:43.304Z,100013.00
2018-09-11T11:20:53.075Z,100005.00
2018-09-11T11:23:03.422Z,100014.00
2018-09-11T11:25:12.564Z,100016.00
2018-09-11T11:27:23.199Z,100021.00
2018-09-11T11:29:32.876Z,100019.00
2018-09-11T11:31:42.908Z,100026.00
2018-09-11T11:33:52.833Z,100017.00
2018-09-11T11:36:02.380Z,100025.00
2018-09-11T11:38:13.231Z,100021.00
2018-09-11T11:40:22.462Z,100023.00
2018-09-11T11:42:31.588Z,100019.00
2018-09-11T11:44:42.188Z,100031.00
2018-09-11T11:46:53.087Z,100024.00
2018-09-11T11:49:02.784Z,100028.00
2018-09-11T11:51:12.228Z,100029.00
2018-09-11T11:53:21.314Z,100016.00
2018-09-11T11:55:30.749Z,100027.00
2018-09-11T11:57:42.471Z,100034.00
2018-09-11T11:59:52.302Z,100031.00
2018-09-11T12:02:02.664Z,100028.00
2018-09-11T12:04:13.900Z,100037.00
2018-09-11T12:06:26.366Z,100033.00
2018-09-11T12:08:35.519Z,100022.00
2018-09-11T12:10:45.027Z,100024.00
2018-09-11T12:12:54.961Z,100026.00
2018-09-11T12:15:03.737Z,100026.00
2018-09-11T12:17:14.053Z,100022.00
2018-09-11T12:19:25.194Z,100020.00
2018-09-11T12:21:35.309Z,100012.00
2018-09-11T12:23:45.461Z,100013.00
2018-09-11T12:25:56.162Z,99995.00
2018-09-11T12:28:06.067Z,100000.00
2018-09-11T12:30:15.579Z,100001.00
2018-09-11T12:32:25.708Z,100006.00
2018-09-11T12:34:35.322Z,99999.00
2018-09-11T12:36:44.470Z,99999.00
2018-09-11T12:38:55.590Z,100002.00
2018-09-11T12:41:04.252Z,99994.00
2018-09-11T12:43:10.199Z,99992.00
2018-09-11T12:45:17.615Z,99995.00
2018-09-11T12:47:26.513Z,99998.00
2018-09-11T12:49:37.049Z,99995.00
2018-09-11T12:51:48.707Z,100010.00
2018-09-11T12:54:01.231Z,99992.00
2018-09-11T12:56:11.116Z,99995.00
2018-09-11T12:58:21.015Z,99998.00
2018-09-11T13:00:31.395Z,99995.00
2018-09-11T13:02:42.953Z,99995.00
2018-09-11T13:04:57.348Z,99986.00
2018-09-11T13:07:08.733Z,100001.00
2018-09-11T13:09:19.120Z,99983.00
2018-09-11T13:11:30.613Z,99988.00
2018-09-11T13:13:41.937Z,99985.00
2018-09-11T13:15:54.173Z,99981.00
2018-09-11T13:18:03.658Z,99986.00
2018-09-11T13:20:15.620Z,99992.00
2018-09-11T13:22:25.964Z,99992.00
2018-09-11T13:24:37.048Z,99979.00
2018-09-11T13:26:47.401Z,99983.00
2018-09-11T13:28:57.144Z,99982.00
2018-09-11T13:31:08.858Z,99989.00
2018-09-11T13:33:17.966Z,99989.00
2018-09-11T13:35:30.269Z,99982.00
2018-09-11T13:37:42.664Z,99980.00
2018-09-11T13:39:52.087Z,99972.00
2018-09-11T13:42:05.986Z,99971.00
2018-09-11T13:44:16.482Z,99965.00
2018-09-11T13:46:27.775Z,99963.00
2018-09-11T13:48:38.776Z,99964.00
2018-09-11T13:50:47.687Z,99966.00
2018-09-11T13:52:56.568Z,99968.00
2018-09-11T13:55:04.743Z,99967.00
2018-09-11T13:57:15.655Z,99968.00
2018-09-11T13:59:23.864Z,99963.00
2018-09-11T14:01:33.381Z,99967.00
2018-09-11T14:03:38.704Z,99974.00
2018-09-11T14:05:46.958Z,99972.00
2018-09-11T14:07:56.639Z,99971.00
2018-09-11T14:10:04.309Z,99959.00
2018-09-11T14:12:11.094Z,99959.00
2018-09-11T14:14:20.087Z,99952.00
2018-09-11T14:16:27.984Z,99954.00
2018-09-11T14:18:35.367Z,99955.00
2018-09-11T14:20:43.025Z,99957.00
2018-09-11T14:22:48.810Z,99954.00
2018-09-11T14:24:55.297Z,99945.00
2018-09-11T14:27:02.983Z,99952.00
2018-09-11T14:29:12.867Z,99937.00
2018-09-11T14:31:20.132Z,99936.00
2018-09-11T14:33:27.553Z,99945.00
2018-09-11T14:35:34.530Z,99938.00
2018-09-11T14:37:43.950Z,99942.00
2018-09-11T14:39:53.052Z,99943.00
2018-09-11T14:42:01.105Z,99948.00
2018-09-11T14:44:09.741Z,99942.00
2018-09-11T14:46:18.613Z,99938.00
2018-09-11T14:48:27.688Z,99943.00
2018-09-11T14:50:36.894Z,99944.00
2018-09-11T14:52:45.606Z,99937.00
2018-09-11T14:54:53.048Z,99933.00
2018-09-11T14:57:02.030Z,99938.00
2018-09-11T14:59:09.378Z,99929.00
2018-09-11T15:01:17.604Z,99929.00
2018-09-11T15:03:28.024Z,99931.00
2018-09-11T15:05:36.420Z,99938.00
2018-09-11T15:07:44.047Z,99930.00
2018-09-11T15:09:54.625Z,99936.00
2018-09-11T15:12:08.264Z,99941.00
2018-09-11T15:14:18.293Z,99936.00
2018-09-11T15:16:27.905Z,99938.00
2018-09-11T15:18:38.112Z,99941.00
2018-09-11T15:20:48.815Z,99939.00
2018-09-11T15:23:02.483Z,99944.00
2018-09-11T15:25:11.750Z,99935.00
2018-09-11T15:27:19.022Z,99933.00
2018-09-11T15:29:27.335Z,99941.00
2018-09-11T15:31:37.238Z,99934.00
2018-09-11T15:33:44.702Z,99929.00
2018-09-11T15:35:52.493Z,99926.00
2018-09-11T15:38:01.524Z,99934.00
2018-09-11T15:40:11.268Z,99924.00
2018-09-11T15:42:19.873Z,99919.00
2018-09-11T15:44:28.464Z,99925.00
2018-09-11T15:46:37.030Z,99920.00
2018-09-11T15:48:46.107Z,99923.00
2018-09-11T15:50:55.913Z,99918.00
2018-09-11T15:53:04.908Z,99906.00
2018-09-11T15:55:15.418Z,99909.00
2018-09-11T15:57:25.590Z,99908.00
2018-09-11T15:59:34.842Z,99904.00
2018-09-11T16:01:47.286Z,99891.00
2018-09-11T16:03:58.039Z,99892.00
2018-09-11T16:06:05.734Z,99890.00
2018-09-11T16:08:13.861Z,99894.00
2018-09-11T16:10:22.667Z,99898.00
2018-09-11T16:12:32.108Z,99891.00
2018-09-11T16:14:42.239Z,99897.00
2018-09-11T16:16:52.812Z,99892.00
2018-09-11T16:19:02.147Z,99896.00
2018-09-11T16:21:09.637Z,99885.00
2018-09-11T16:23:19.427Z,99881.00
2018-09-11T16:25:31.023Z,99881.00
2018-09-11T16:27:42.576Z,99867.00
2018-09-11T16:29:57.303Z,99877.00
2018-09-11T16:32:08.285Z,99881.00
2018-09-11T16:34:19.268Z,99869.00
2018-09-11T16:36:28.407Z,99875.00
2018-09-11T16:38:36.293Z,99871.00
2018-09-11T16:40:48.413Z,99878.00
2018-09-11T16:42:58.838Z,99872.00
2018-09-11T16:45:10.630Z,99881.00
2018-09-11T16:47:20.186Z,99880.00
2018-09-11T16:49:29.953Z,99871.00
2018-09-11T16:51:41.184Z,99872.00
2018-09-11T16:53:51.328Z,99874.00
2018-09-11T16:56:00.724Z,99871.00
2018-09-11T16:58:08.500Z,99873.00
2018-09-11T17:00:18.124Z,99877.00
2018-09-11T17:02:27.517Z,99863.00
2018-09-11T17:04:37.418Z,99865.00
2018-09-11T17:06:46.472Z,99871.00
2018-09-11T17:08:58.420Z,99875.00
2018-09-11T17:11:09.970Z,99882.00
2018-09-11T17:13:20.206Z,99880.00
2018-09-11T17:15:32.867Z,99890.00
2018-09-11T17:17:43.671Z,99877.00
2018-09-11T17:19:57.845Z,99875.00
2018-09-11T17:22:07.805Z,99883.00
2018-09-11T17:24:17.496Z,99882.00
2018-09-11T17:26:29.590Z,99871.00
2018-09-11T17:28:39.087Z,99883.00
2018-09-11T17:30:50.325Z,99885.00
2018-09-11T17:33:01.406Z,99877.00
2018-09-11T17:35:10.883Z,99877.00
2018-09-11T17:37:19.794Z,99881.00
2018-09-11T17:39:31.790Z,99881.00
2018-09-11T17:41:43.140Z,99882.00
2018-09-11T17:43:51.899Z,99889.00
2018-09-11T17:46:01.616Z,99890.00
2018-09-11T17:48:10.263Z,99899.00
2018-09-11T17:50:14.808Z,99905.00
2018-09-11T17:52:22.765Z,99904.00
2018-09-11T17:54:29.098Z,99906.00
2018-09-11T17:56:36.466Z,99901.00
2018-09-11T17:58:46.922Z,99905.00
2018-09-11T18:00:56.090Z,99913.00
2018-09-11T18:03:07.367Z,99913.00
2018-09-11T18:05:16.025Z,99920.00
2018-09-11T18:07:26.232Z,99923.00
2018-09-11T18:09:37.057Z,99921.00
2018-09-11T18:11:46.306Z,99920.00
2018-09-11T18:13:58.699Z,99922.00
2018-09-11T18:16:11.328Z,99921.00
2018-09-11T18:18:20.281Z,99925.00
2018-09-11T18:20:29.589Z,99928.00
2018-09-11T18:22:40.289Z,99928.00
2018-09-11T18:24:47.760Z,99932.00
2018-09-11T18:26:55.677Z,99939.00
2018-09-11T18:29:03.765Z,99938.00
2018-09-11T18:31:14.294Z,99937.00
2018-09-11T18:33:26.747Z,99942.00
2018-09-11T18:35:34.063Z,99942.00
2018-09-11T18:37:43.595Z,99948.00
2018-09-11T18:39:50.315Z,99944.00
2018-09-11T18:41:59.777Z,99945.00
2018-09-11T18:44:09.078Z,99948.00
2018-09-11T18:46:19.673Z,99953.00
2018-09-11T18:48:27.269Z,99958.00
2018-09-11T18:50:37.390Z,99956.00
2018-09-11T18:52:46.571Z,99952.00
2018-09-11T18:54:55.323Z,99961.00
2018-09-11T18:57:03.233Z,99960.00
2018-09-11T18:59:08.837Z,99951.00
2018-09-11T19:01:13.499Z,99965.00
2018-09-11T19:03:18.969Z,99965.00
2018-09-11T19:05:25.373Z,99957.00
2018-09-11T19:07:31.967Z,99959.00
2018-09-11T19:09:36.398Z,99964.00
2018-09-11T19:11:41.175Z,99969.00
2018-09-11T19:13:45.606Z,99965.00
2018-09-11T19:15:50.209Z,99968.00
2018-09-11T19:17:56.407Z,99965.00
2018-09-11T19:20:00.951Z,99973.00
2018-09-11T19:22:05.519Z,99970.00
2018-09-11T19:24:12.003Z,99965.00
2018-09-11T19:26:16.938Z,99970.00
2018-09-11T19:28:21.893Z,99969.00
2018-09-11T19:30:27.843Z,99960.00
2018-09-11T19:32:35.944Z,99972.00
2018-09-11T19:34:42.998Z,99970.00
2018-09-11T19:36:48.516Z,99975.00
2018-09-11T19:38:56.836Z,99961.00
2018-09-11T19:41:03.110Z,99962.00
2018-09-11T19:43:11.960Z,99957.00
2018-09-11T19:45:18.415Z,99955.00
2018-09-11T19:47:26.169Z,99959.00
2018-09-11T19:49:37.296Z,99961.00
2018-09-11T19:51:44.039Z,99961.00
2018-09-11T19:53:49.775Z,99969.00
2018-09-11T19:55:58.318Z,99962.00
2018-09-11T19:58:05.604Z,99957.00
2018-09-11T20:00:13.353Z,99962.00
2018-09-11T20:02:20.226Z,99950.00
2018-09-11T20:04:28.939Z,99964.00
2018-09-11T20:06:38.550Z,99960.00
2018-09-11T20:08:46.546Z,99957.00
2018-09-11T20:10:53.451Z,99965.00
2018-09-11T20:13:02.402Z,99956.00
2018-09-11T20:15:10.517Z,99960.00
2018-09-11T20:17:16.757Z,99955.00
2018-09-11T20:19:24.567Z,99961.00
2018-09-11T20:21:33.568Z,99955.00
2018-09-11T20:23:44.555Z,99953.00
2018-09-11T20:25:51.197Z,99958.00
2018-09-11T20:27:57.934Z,99961.00
2018-09-11T20:30:04.527Z,99950.00
2018-09-11T20:32:12.639Z,99950.00
2018-09-11T20:34:19.960Z,99952.00
2018-09-11T20:36:27.209Z,99950.00
2018-09-11T20:38:31.815Z,99950.00
2018-09-11T20:40:39.016Z,99948.00
2018-09-11T20:42:45.433Z,99948.00
2018-09-11T20:44:57.479Z,99946.00
2018-09-11T20:47:07.689Z,99954.00
2018-09-11T20:49:13.937Z,99948.00
2018-09-11T20:51:22.187Z,99949.00
2018-09-11T20:53:29.781Z,99954.00
2018-09-11T20:55:38.973Z,99958.00
2018-09-11T20:57:47.515Z,99952.00
2018-09-11T20:59:57.604Z,99952.00
2018-09-11T21:02:06.568Z,99952.00
2018-09-11T21:04:15.631Z,99949.00
2018-09-11T21:06:26.169Z,99948.00
2018-09-11T21:08:32.467Z,99954.00
2018-09-11T21:10:40.010Z,99943.00
2018-09-11T21:12:50.478Z,99951.00
2018-09-11T21:14:55.783Z,99949.00
2018-09-11T21:17:06.856Z,99951.00
2018-09-11T21:19:16.594Z,99949.00
2018-09-11T21:21:26.133Z,99961.00
2018-09-11T21:23:35.572Z,99960.00
2018-09-11T21:25:46.291Z,99954.00
2018-09-11T21:27:55.780Z,99945.00
2018-09-11T21:30:08.402Z,99948.00
2018-09-11T21:32:17.867Z,99946.00
2018-09-11T21:34:27.045Z,99949.00
2018-09-11T21:36:36.162Z,99950.00
2018-09-11T21:38:45.733Z,99950.00
2018-09-11T21:40:54.227Z,99947.00
2018-09-11T21:43:03.094Z,99954.00
2018-09-11T21:45:14.452Z,99955.00
2018-09-11T21:47:23.555Z,99961.00
2018-09-11T21:49:34.060Z,99955.00
2018-09-11T21:51:44.867Z,99960.00
2018-09-11T21:53:53.695Z,99963.00
2018-09-11T21:56:03.005Z,99960.00
2018-09-11T21:58:13.382Z,99953.00
2018-09-11T22:00:24.859Z,99954.00
2018-09-11T22:02:34.660Z,99949.00
2018-09-11T22:04:44.882Z,99957.00
2018-09-11T22:06:55.682Z,99953.00
2018-09-11T22:09:06.568Z,99956.00
2018-09-11T22:11:17.896Z,99960.00
2018-09-11T22:13:27.406Z,99964.00
2018-09-11T22:15:37.710Z,99959.00
2018-09-11T22:17:46.269Z,99960.00
2018-09-11T22:19:55.180Z,99966.00
2018-09-11T22:22:04.482Z,99964.00
2018-09-11T22:24:13.724Z,99964.00
2018-09-11T22:26:25.508Z,99959.00
2018-09-11T22:28:35.751Z,99970.00
2018-09-11T22:30:47.867Z,99962.00
2018-09-11T22:32:57.700Z,99957.00
2018-09-11T22:35:07.222Z,99967.00
2018-09-11T22:37:17.022Z,99956.00
2018-09-11T22:39:24.788Z,99960.00
2018-09-11T22:41:33.938Z,99952.00
2018-09-11T22:43:42.043Z,99965.00
2018-09-11T22:45:49.111Z,99950.00
2018-09-11T22:47:58.942Z,99959.00
2018-09-11T22:50:04.155Z,99951.00
2018-09-11T22:52:09.978Z,99956.00
2018-09-11T22:54:18.293Z,99954.00
2018-09-11T22:56:24.524Z,99949.00
2018-09-11T22:58:32.052Z,99955.00
2018-09-11T23:00:40.203Z,99946.00
2018-09-11T23:02:50.411Z,99947.00
2018-09-11T23:05:00.499Z,99947.00
2018-09-11T23:07:08.014Z,99937.00
2018-09-11T23:09:15.441Z,99941.00
2018-09-11T23:11:24.732Z,99936.00
2018-09-11T23:13:31.304Z,99936.00
2018-09-11T23:15:39.726Z,99933.00
2018-09-11T23:17:50.598Z,99934.00
2018-09-11T23:19:58.937Z,99939.00
2018-09-11T23:22:04.220Z,99940.00
2018-09-11T23:24:09.556Z,99942.00
2018-09-11T23:26:16.056Z,99938.00
2018-09-11T23:28:23.508Z,99944.00
2018-09-11T23:30:32.998Z,99937.00
2018-09-11T23:32:40.673Z,99933.00
2018-09-11T23:34:47.128Z,99932.00
2018-09-11T23:36:55.275Z,99930.00
2018-09-11T23:39:02.221Z,99930.00
2018-09-11T23:41:15.073Z,99935.00
2018-09-11T23:43:27.118Z,99929.00
2018-09-11T23:45:33.739Z,99939.00
2018-09-11T23:47:44.085Z,99931.00
2018-09-11T23:49:50.769Z,99939.00
2018-09-11T23:51:59.510Z,99941.00
2018-09-11T23:54:08.781Z,99945.00
2018-09-11T23:56:17.367Z,99937.00
2018-09-11T23:58:25.383Z,99932.00
